Atlanta, Mississippi
Current Conditions -  °F | °C
As of 8:55 PM on Friday 21 Nov 2014 (Local Time) from KM40 Reporting Station
Haze Haze  
Wind Chill: 14°   Ceiling: 11000
Heat Index: 14°   Visibility: 2.5mi
Dew Point:   Wind: 0mph
Humidity: 59%   Direction: NA
Pressure: 30.33"   Gusts: NA
Location:  33.7962°N, 89.0553°W
Report Text: KM40 220255Z AUTO 00000KT 2 1/2SM HZ BKN110 14/06 A3033 RMK AO2
Loading
Personal Weather Stations






























Interactive Weather Map New forecast layout! Learn more

10-Day Weather Forecast

Advertisements
Track Severe Weather on mobile